Montgomery, NY

9:50 PM EDT en Septiembre 01, 2014 (GMT -0400)
Sussex | Change Station
CLOSE
Current Station
Aeropuerto
Location: Sussex,
Altura: 420 ft
Estaciones meteorológicas cercanas

Alt 420 ft 41.20 °N, 74.63 °W | Updated 57 minutes ago

Scattered Clouds
Nubes dispersas
76 ° F
Sensación térmica 76 ° F
N
0
Viento Variable Viento desde Norte

Hoy
Alta -- | Baja -- ° F
--% Posibilidad de precipitaciones
Ayer
Alta -- | Baja -- ° F
Precip. -- pul
6:23 AM 7:30 PM
Creciente, 46% visible
Presión 29.94 pul
Visibilidad 8.0 Millas
Nubes Nubes dispersas 7000 ft
Punto de rocío 72 ° F
Humedad 87%
Precipitaciones 0.01 pul
Espesor de la nieve No disponible.
UV 0 de una escala de 12
Polen 5.00 de una escala de 12
PM2.5 Buena
Flu Activity No disponible.
METAR KFWN 020053Z AUTO 00000KT 8SM SCT070 24/22 A2995 RMK AO1 SLP139 T02440222

More Conditions Fewer Conditions

Presión 29.94 pul
Visibilidad 8.0 Millas
Nubes Nubes dispersas 7000 ft
Punto de rocío 72 ° F
Humedad 87%
Precipitaciones 0.01 pul
Espesor de la nieve No disponible.
UV 0 de una escala de 12
Polen 5.00 de una escala de 12
PM2.5 Buena
Flu Activity No disponible.
METAR KFWN 020053Z AUTO 00000KT 8SM SCT070 24/22 A2995 RMK AO1 SLP139 T02440222

More Conditions Fewer Conditions

10-Day Weather Forecast

Almanac

Astronomía

Sep. 01, 2014 Salida Puesta
Hora real 6:23 AM EDT 7:30 PM EDT
Crepúsculo civil 5:54 AM EDT 7:58 PM EDT
Crepúsculo náutico 5:20 AM EDT 8:32 PM EDT
Crepúsculo astronómico 4:44 AM EDT 9:07 PM EDT
Luna 1:11 PM EDT (9/1) 11:24 PM EDT (9/1)
Horas de luz 14h 03m
Horas de luz
13h 07m
Tomorrow will be 2m 41s shorter.
Creciente, 46% of the Moon is Illuminated
Hoy
Creciente
Sep 2
Cuarto creciente
Sep 8
Luna llena
Sep 15
Cuarto menguante
Sep 24
Nueva

Extremos de hoy

Máximos del estado Bajos del estado

Community

WunderPhotos

Upload Photos

1,749,476 ¡fotos cargadas!

Nearby

Calidad del aire

  Calidad del aire Índice AQ Contaminante
Ayer Buena
PM2.5
Ayer Buena
OZONE
Real Buena
PM2.5
Lunes Moderada
OZONE
Lunes Moderada
PM2.5
Martes Moderada
OZONE
Martes Moderada
PM2.5

Grosos de nieve

Estación Profundido Altura
No tenemos constancia de nieve nueva.

Actividad de terremotos

Ciudad Distance Mag. Tiempo y dato
No hay informes recientes de la actividad sísmica.
Magnitud mínima muestra es 2,5.

Temperaturas de aguas costeras

Lugar Temperatura
Sin partes meteorológicos de las estaciones

Estaciones meteorológicas cercanas